sensor_id;sensor_type;location;lat;lon;timestamp;pressure;altitude;pressure_sealevel;temperature;humidity
70338;BME280;57757;53.198;19.646;2022-07-25T00:01:54;100428.63;;;16.04;60.29
70338;BME280;57757;53.198;19.646;2022-07-25T00:04:23;100425.90;;;16.02;60.35
70338;BME280;57757;53.198;19.646;2022-07-25T00:06:52;100424.50;;;16.03;60.29
70338;BME280;57757;53.198;19.646;2022-07-25T00:09:19;100422.60;;;16.02;60.24
70338;BME280;57757;53.198;19.646;2022-07-25T00:11:46;100423.50;;;16.01;60.25
70338;BME280;57757;53.198;19.646;2022-07-25T00:14:14;100417.72;;;15.97;60.45
70338;BME280;57757;53.198;19.646;2022-07-25T00:16:41;100421.13;;;15.95;60.38
70338;BME280;57757;53.198;19.646;2022-07-25T00:19:10;100420.40;;;15.91;60.40
70338;BME280;57757;53.198;19.646;2022-07-25T00:21:37;100423.52;;;15.88;60.59
70338;BME280;57757;53.198;19.646;2022-07-25T00:24:05;100422.77;;;15.85;60.49
70338;BME280;57757;53.198;19.646;2022-07-25T00:26:34;100418.45;;;15.83;60.65
70338;BME280;57757;53.198;19.646;2022-07-25T00:29:06;100418.48;;;15.83;60.74
70338;BME280;57757;53.198;19.646;2022-07-25T00:31:34;100418.09;;;15.79;60.68
70338;BME280;57757;53.198;19.646;2022-07-25T00:34:02;100424.33;;;15.77;60.84
70338;BME280;57757;53.198;19.646;2022-07-25T00:36:31;100425.48;;;15.74;60.91
70338;BME280;57757;53.198;19.646;2022-07-25T00:38:58;100421.77;;;15.70;60.90
70338;BME280;57757;53.198;19.646;2022-07-25T00:41:25;100426.28;;;15.68;60.84
70338;BME280;57757;53.198;19.646;2022-07-25T00:43:53;100427.34;;;15.67;60.99
70338;BME280;57757;53.198;19.646;2022-07-25T00:46:21;100422.98;;;15.66;60.93
70338;BME280;57757;53.198;19.646;2022-07-25T00:48:50;100426.38;;;15.65;61.03
70338;BME280;57757;53.198;19.646;2022-07-25T00:51:18;100427.30;;;15.64;61.01
70338;BME280;57757;53.198;19.646;2022-07-25T00:53:45;100424.41;;;15.62;61.03
70338;BME280;57757;53.198;19.646;2022-07-25T00:56:14;100421.90;;;15.59;60.93
70338;BME280;57757;53.198;19.646;2022-07-25T00:58:42;100420.67;;;15.54;61.04
70338;BME280;57757;53.198;19.646;2022-07-25T01:01:11;100419.46;;;15.54;61.09
70338;BME280;57757;53.198;19.646;2022-07-25T01:03:39;100414.92;;;15.54;61.25
70338;BME280;57757;53.198;19.646;2022-07-25T01:06:07;100412.17;;;15.52;61.24
70338;BME280;57757;53.198;19.646;2022-07-25T01:08:35;100408.08;;;15.49;61.25
70338;BME280;57757;53.198;19.646;2022-07-25T01:11:02;100410.81;;;15.46;61.32
70338;BME280;57757;53.198;19.646;2022-07-25T01:13:33;100410.45;;;15.42;61.42
70338;BME280;57757;53.198;19.646;2022-07-25T01:16:01;100412.29;;;15.36;61.39
70338;BME280;57757;53.198;19.646;2022-07-25T01:18:28;100414.92;;;15.31;61.50
70338;BME280;57757;53.198;19.646;2022-07-25T01:20:56;100412.40;;;15.28;61.53
70338;BME280;57757;53.198;19.646;2022-07-25T01:23:24;100415.19;;;15.28;61.66
70338;BME280;57757;53.198;19.646;2022-07-25T01:25:51;100405.19;;;15.29;61.61
70338;BME280;57757;53.198;19.646;2022-07-25T01:28:19;100411.70;;;15.28;61.64
70338;BME280;57757;53.198;19.646;2022-07-25T01:30:46;100404.64;;;15.25;61.72
70338;BME280;57757;53.198;19.646;2022-07-25T01:33:15;100399.12;;;15.23;61.78
70338;BME280;57757;53.198;19.646;2022-07-25T01:35:44;100398.35;;;15.20;61.65
70338;BME280;57757;53.198;19.646;2022-07-25T01:38:12;100400.80;;;15.20;61.67
70338;BME280;57757;53.198;19.646;2022-07-25T01:40:42;100397.34;;;15.19;61.74
70338;BME280;57757;53.198;19.646;2022-07-25T01:43:10;100398.61;;;15.18;61.71
70338;BME280;57757;53.198;19.646;2022-07-25T01:45:38;100395.08;;;15.19;61.88
70338;BME280;57757;53.198;19.646;2022-07-25T01:48:06;100392.69;;;15.17;61.88
70338;BME280;57757;53.198;19.646;2022-07-25T01:50:33;100392.73;;;15.16;61.81
70338;BME280;57757;53.198;19.646;2022-07-25T01:53:01;100391.72;;;15.15;61.90
70338;BME280;57757;53.198;19.646;2022-07-25T01:55:28;100392.63;;;15.15;61.87
70338;BME280;57757;53.198;19.646;2022-07-25T01:57:57;100396.20;;;15.12;61.83
70338;BME280;57757;53.198;19.646;2022-07-25T02:00:26;100399.61;;;15.11;61.89
70338;BME280;57757;53.198;19.646;2022-07-25T02:02:53;100397.08;;;15.08;61.98
70338;BME280;57757;53.198;19.646;2022-07-25T02:05:41;100391.40;;;15.05;62.05
70338;BME280;57757;53.198;19.646;2022-07-25T02:08:08;100399.20;;;15.03;61.99
70338;BME280;57757;53.198;19.646;2022-07-25T02:10:37;100391.23;;;15.00;62.11
70338;BME280;57757;53.198;19.646;2022-07-25T02:13:05;100390.84;;;14.97;62.12
70338;BME280;57757;53.198;19.646;2022-07-25T02:15:32;100392.77;;;14.97;62.08
70338;BME280;57757;53.198;19.646;2022-07-25T02:18:00;100390.48;;;14.98;62.02
70338;BME280;57757;53.198;19.646;2022-07-25T02:20:27;100393.60;;;14.98;62.17
70338;BME280;57757;53.198;19.646;2022-07-25T02:22:55;100395.55;;;14.98;62.16
70338;BME280;57757;53.198;19.646;2022-07-25T02:25:22;100395.31;;;14.95;62.18
70338;BME280;57757;53.198;19.646;2022-07-25T02:27:50;100395.22;;;14.93;62.14
70338;BME280;57757;53.198;19.646;2022-07-25T02:30:17;100390.21;;;14.91;62.23
70338;BME280;57757;53.198;19.646;2022-07-25T02:32:45;100389.70;;;14.90;62.15
70338;BME280;57757;53.198;19.646;2022-07-25T02:35:12;100386.70;;;14.91;62.28
70338;BME280;57757;53.198;19.646;2022-07-25T02:37:40;100389.98;;;14.92;62.36
70338;BME280;57757;53.198;19.646;2022-07-25T02:40:08;100388.98;;;14.91;62.29
70338;BME280;57757;53.198;19.646;2022-07-25T02:42:36;100384.80;;;14.90;62.27
70338;BME280;57757;53.198;19.646;2022-07-25T02:45:05;100392.98;;;14.92;62.53
70338;BME280;57757;53.198;19.646;2022-07-25T02:47:32;100389.37;;;14.90;62.53
70338;BME280;57757;53.198;19.646;2022-07-25T02:50:00;100385.88;;;14.90;62.46
70338;BME280;57757;53.198;19.646;2022-07-25T02:52:27;100386.70;;;14.91;62.55
70338;BME280;57757;53.198;19.646;2022-07-25T02:54:55;100389.97;;;14.93;62.65
70338;BME280;57757;53.198;19.646;2022-07-25T02:57:22;100390.64;;;14.93;62.62
70338;BME280;57757;53.198;19.646;2022-07-25T02:59:50;100389.21;;;14.94;62.46
70338;BME280;57757;53.198;19.646;2022-07-25T03:02:17;100390.48;;;14.93;62.57
70338;BME280;57757;53.198;19.646;2022-07-25T03:04:45;100393.12;;;14.93;62.58
70338;BME280;57757;53.198;19.646;2022-07-25T03:07:12;100399.41;;;14.93;62.63
70338;BME280;57757;53.198;19.646;2022-07-25T03:09:40;100402.73;;;14.93;62.56
70338;BME280;57757;53.198;19.646;2022-07-25T03:12:07;100402.52;;;14.94;62.68
70338;BME280;57757;53.198;19.646;2022-07-25T03:14:35;100400.46;;;14.98;62.67
70338;BME280;57757;53.198;19.646;2022-07-25T03:17:02;100409.23;;;15.02;62.78
70338;BME280;57757;53.198;19.646;2022-07-25T03:19:30;100408.35;;;15.06;62.76
70338;BME280;57757;53.198;19.646;2022-07-25T03:21:57;100412.20;;;15.06;62.68
70338;BME280;57757;53.198;19.646;2022-07-25T03:24:25;100416.22;;;15.06;62.64
70338;BME280;57757;53.198;19.646;2022-07-25T03:26:52;100410.08;;;15.03;62.67
70338;BME280;57757;53.198;19.646;2022-07-25T03:29:21;100407.48;;;15.02;62.68
70338;BME280;57757;53.198;19.646;2022-07-25T03:31:48;100406.46;;;15.01;62.71
70338;BME280;57757;53.198;19.646;2022-07-25T03:34:16;100403.34;;;15.00;62.66
70338;BME280;57757;53.198;19.646;2022-07-25T03:36:43;100402.02;;;15.03;62.82
70338;BME280;57757;53.198;19.646;2022-07-25T03:39:11;100397.75;;;15.04;62.85
70338;BME280;57757;53.198;19.646;2022-07-25T03:41:39;100401.52;;;15.06;62.94
70338;BME280;57757;53.198;19.646;2022-07-25T03:44:06;100405.25;;;15.10;63.11
70338;BME280;57757;53.198;19.646;2022-07-25T03:46:34;100403.08;;;15.11;63.01
70338;BME280;57757;53.198;19.646;2022-07-25T03:49:02;100401.16;;;15.11;62.93
70338;BME280;57757;53.198;19.646;2022-07-25T03:51:30;100404.84;;;15.16;63.11
70338;BME280;57757;53.198;19.646;2022-07-25T03:53:57;100402.95;;;15.19;63.00
70338;BME280;57757;53.198;19.646;2022-07-25T03:56:34;100399.58;;;15.20;62.94
70338;BME280;57757;53.198;19.646;2022-07-25T03:59:12;100401.66;;;15.25;63.00
70338;BME280;57757;53.198;19.646;2022-07-25T04:01:42;100399.89;;;15.30;63.09
70338;BME280;57757;53.198;19.646;2022-07-25T04:04:10;100404.05;;;15.35;63.29
70338;BME280;57757;53.198;19.646;2022-07-25T04:06:39;100400.88;;;15.41;63.37
70338;BME280;57757;53.198;19.646;2022-07-25T04:09:08;100399.72;;;15.48;63.32
70338;BME280;57757;53.198;19.646;2022-07-25T04:11:36;100400.69;;;15.54;63.47
70338;BME280;57757;53.198;19.646;2022-07-25T04:14:04;100397.19;;;15.63;63.34
70338;BME280;57757;53.198;19.646;2022-07-25T04:16:33;100398.88;;;15.72;63.36
70338;BME280;57757;53.198;19.646;2022-07-25T04:19:01;100395.73;;;15.82;63.35
70338;BME280;57757;53.198;19.646;2022-07-25T04:21:31;100395.73;;;15.90;63.35
70338;BME280;57757;53.198;19.646;2022-07-25T04:23:59;100394.16;;;15.98;63.46
70338;BME280;57757;53.198;19.646;2022-07-25T04:26:26;100393.08;;;16.02;63.41
70338;BME280;57757;53.198;19.646;2022-07-25T04:28:54;100389.45;;;16.06;63.34
70338;BME280;57757;53.198;19.646;2022-07-25T04:31:24;100390.84;;;16.14;63.42
70338;BME280;57757;53.198;19.646;2022-07-25T04:33:52;100387.58;;;16.24;63.58
70338;BME280;57757;53.198;19.646;2022-07-25T04:36:19;100385.50;;;16.36;63.45
70338;BME280;57757;53.198;19.646;2022-07-25T04:38:47;100381.94;;;16.45;63.35
70338;BME280;57757;53.198;19.646;2022-07-25T04:41:14;100381.65;;;16.55;63.49
70338;BME280;57757;53.198;19.646;2022-07-25T04:43:42;100379.25;;;16.66;63.66
70338;BME280;57757;53.198;19.646;2022-07-25T04:46:19;100381.94;;;16.76;63.63
70338;BME280;57757;53.198;19.646;2022-07-25T04:48:48;100380.83;;;16.85;63.54
70338;BME280;57757;53.198;19.646;2022-07-25T04:51:17;100378.70;;;16.93;63.39
70338;BME280;57757;53.198;19.646;2022-07-25T04:53:44;100375.93;;;17.03;63.49
70338;BME280;57757;53.198;19.646;2022-07-25T04:56:12;100365.80;;;17.13;63.35
70338;BME280;57757;53.198;19.646;2022-07-25T04:58:39;100365.80;;;17.20;63.18
70338;BME280;57757;53.198;19.646;2022-07-25T05:01:07;100361.05;;;17.28;63.16
70338;BME280;57757;53.198;19.646;2022-07-25T05:03:35;100358.42;;;17.39;63.27
70338;BME280;57757;53.198;19.646;2022-07-25T05:06:02;100354.33;;;17.50;63.30
70338;BME280;57757;53.198;19.646;2022-07-25T05:08:30;100345.17;;;17.58;63.24
70338;BME280;57757;53.198;19.646;2022-07-25T05:10:57;100339.02;;;17.65;63.02
70338;BME280;57757;53.198;19.646;2022-07-25T05:13:25;100341.69;;;17.72;63.01
70338;BME280;57757;53.198;19.646;2022-07-25T05:15:52;100344.13;;;17.79;62.93
70338;BME280;57757;53.198;19.646;2022-07-25T05:18:20;100340.41;;;17.90;62.98
70338;BME280;57757;53.198;19.646;2022-07-25T05:20:48;100336.91;;;18.00;62.84
70338;BME280;57757;53.198;19.646;2022-07-25T05:23:15;100333.89;;;18.10;63.08
70338;BME280;57757;53.198;19.646;2022-07-25T05:25:43;100336.02;;;18.23;63.08
70338;BME280;57757;53.198;19.646;2022-07-25T05:28:11;100331.77;;;18.30;62.87
70338;BME280;57757;53.198;19.646;2022-07-25T05:30:40;100324.98;;;18.35;62.71
70338;BME280;57757;53.198;19.646;2022-07-25T05:33:08;100325.20;;;18.41;62.72
70338;BME280;57757;53.198;19.646;2022-07-25T05:35:36;100324.29;;;18.48;62.71
70338;BME280;57757;53.198;19.646;2022-07-25T05:38:03;100321.61;;;18.59;62.75
70338;BME280;57757;53.198;19.646;2022-07-25T05:40:31;100328.65;;;18.73;62.61
70338;BME280;57757;53.198;19.646;2022-07-25T05:42:58;100329.87;;;18.85;62.54
70338;BME280;57757;53.198;19.646;2022-07-25T05:45:30;100329.95;;;19.00;62.45
70338;BME280;57757;53.198;19.646;2022-07-25T05:47:57;100332.45;;;19.11;62.35
70338;BME280;57757;53.198;19.646;2022-07-25T05:50:25;100329.32;;;19.20;62.10
70338;BME280;57757;53.198;19.646;2022-07-25T05:52:52;100322.82;;;19.29;61.93
70338;BME280;57757;53.198;19.646;2022-07-25T05:55:20;100320.71;;;19.38;61.96
70338;BME280;57757;53.198;19.646;2022-07-25T05:57:47;100326.95;;;19.43;61.64
70338;BME280;57757;53.198;19.646;2022-07-25T06:00:15;100330.89;;;19.51;61.72
70338;BME280;57757;53.198;19.646;2022-07-25T06:02:42;100332.93;;;19.62;61.56
70338;BME280;57757;53.198;19.646;2022-07-25T06:05:10;100330.56;;;19.72;61.56
70338;BME280;57757;53.198;19.646;2022-07-25T06:07:37;100328.98;;;19.78;61.28
70338;BME280;57757;53.198;19.646;2022-07-25T06:10:06;100327.02;;;19.87;61.19
70338;BME280;57757;53.198;19.646;2022-07-25T06:12:34;100318.18;;;19.99;61.25
70338;BME280;57757;53.198;19.646;2022-07-25T06:15:04;100316.45;;;20.10;61.19
70338;BME280;57757;53.198;19.646;2022-07-25T06:17:31;100315.86;;;20.20;61.02
70338;BME280;57757;53.198;19.646;2022-07-25T06:19:59;100309.94;;;20.27;60.88
70338;BME280;57757;53.198;19.646;2022-07-25T06:22:27;100308.27;;;20.35;60.83
70338;BME280;57757;53.198;19.646;2022-07-25T06:24:56;100309.23;;;20.44;60.72
70338;BME280;57757;53.198;19.646;2022-07-25T06:27:23;100304.21;;;20.51;60.39
70338;BME280;57757;53.198;19.646;2022-07-25T06:29:55;100307.84;;;20.56;60.16
70338;BME280;57757;53.198;19.646;2022-07-25T06:32:23;100302.13;;;20.54;59.91
70338;BME280;57757;53.198;19.646;2022-07-25T06:34:50;100304.08;;;20.57;60.07
70338;BME280;57757;53.198;19.646;2022-07-25T06:37:18;100295.04;;;20.62;59.98
70338;BME280;57757;53.198;19.646;2022-07-25T06:39:45;100296.70;;;20.70;59.98
70338;BME280;57757;53.198;19.646;2022-07-25T06:42:13;100294.20;;;20.78;59.88
70338;BME280;57757;53.198;19.646;2022-07-25T06:44:41;100289.97;;;20.89;59.76
70338;BME280;57757;53.198;19.646;2022-07-25T06:47:08;100280.88;;;20.98;59.68
70338;BME280;57757;53.198;19.646;2022-07-25T06:49:40;100283.30;;;21.07;59.50
70338;BME280;57757;53.198;19.646;2022-07-25T06:52:08;100278.98;;;21.17;59.59
70338;BME280;57757;53.198;19.646;2022-07-25T06:54:35;100274.98;;;21.26;59.46
70338;BME280;57757;53.198;19.646;2022-07-25T06:57:03;100267.70;;;21.35;59.26
70338;BME280;57757;53.198;19.646;2022-07-25T10:16:23;100161.48;;;28.13;47.56
70338;BME280;57757;53.198;19.646;2022-07-25T10:18:54;100156.33;;;28.56;47.81
70338;BME280;57757;53.198;19.646;2022-07-25T10:21:23;100151.77;;;28.91;47.45
70338;BME280;57757;53.198;19.646;2022-07-25T10:26:33;100150.10;;;29.46;46.67
70338;BME280;57757;53.198;19.646;2022-07-25T10:29:08;100147.65;;;29.61;46.49
70338;BME280;57757;53.198;19.646;2022-07-25T10:31:40;100150.90;;;29.85;46.25
70338;BME280;57757;53.198;19.646;2022-07-25T10:37:17;100143.23;;;30.42;46.10
70338;BME280;57757;53.198;19.646;2022-07-25T10:39:46;100143.46;;;30.81;45.69
70338;BME280;57757;53.198;19.646;2022-07-25T10:42:21;100142.80;;;30.98;45.28
70338;BME280;57757;53.198;19.646;2022-07-25T10:47:53;100138.98;;;31.27;44.42
70338;BME280;57757;53.198;19.646;2022-07-25T10:50:21;100137.89;;;31.34;44.34
70338;BME280;57757;53.198;19.646;2022-07-25T10:53:09;100132.26;;;31.40;43.89
70338;BME280;57757;53.198;19.646;2022-07-25T10:55:37;100132.59;;;31.46;43.89
70338;BME280;57757;53.198;19.646;2022-07-25T10:58:04;100131.54;;;31.76;44.10
70338;BME280;57757;53.198;19.646;2022-07-25T11:00:44;100125.20;;;32.23;44.09
70338;BME280;57757;53.198;19.646;2022-07-25T11:03:12;100119.66;;;32.64;43.70
70338;BME280;57757;53.198;19.646;2022-07-25T11:05:47;100119.09;;;33.03;43.12
70338;BME280;57757;53.198;19.646;2022-07-25T11:08:15;100116.60;;;33.13;42.51
70338;BME280;57757;53.198;19.646;2022-07-25T11:10:50;100110.24;;;33.17;42.27
70338;BME280;57757;53.198;19.646;2022-07-25T11:13:18;100106.98;;;33.18;41.82
70338;BME280;57757;53.198;19.646;2022-07-25T11:15:46;100103.89;;;33.22;41.60
70338;BME280;57757;53.198;19.646;2022-07-25T11:18:14;100105.50;;;33.22;40.94
70338;BME280;57757;53.198;19.646;2022-07-25T11:20:44;100093.71;;;32.99;40.67
70338;BME280;57757;53.198;19.646;2022-07-25T11:23:20;100096.56;;;32.89;40.29
70338;BME280;57757;53.198;19.646;2022-07-25T11:25:47;100088.80;;;32.70;40.52
70338;BME280;57757;53.198;19.646;2022-07-25T11:28:15;100087.77;;;32.83;40.45
70338;BME280;57757;53.198;19.646;2022-07-25T11:30:43;100082.55;;;33.01;40.39
70338;BME280;57757;53.198;19.646;2022-07-25T11:33:12;100081.99;;;33.07;40.01
70338;BME280;57757;53.198;19.646;2022-07-25T11:35:44;100079.28;;;33.18;39.75
70338;BME280;57757;53.198;19.646;2022-07-25T11:38:12;100074.05;;;33.31;39.74
70338;BME280;57757;53.198;19.646;2022-07-25T11:40:43;100074.93;;;33.34;38.84
70338;BME280;57757;53.198;19.646;2022-07-25T11:43:27;100072.61;;;33.37;38.89
70338;BME280;57757;53.198;19.646;2022-07-25T11:46:00;100067.84;;;33.31;38.35
70338;BME280;57757;53.198;19.646;2022-07-25T11:48:31;100062.99;;;33.23;38.27
70338;BME280;57757;53.198;19.646;2022-07-25T11:53:49;100058.75;;;33.40;38.13
70338;BME280;57757;53.198;19.646;2022-07-25T11:56:22;100051.89;;;33.56;37.97
70338;BME280;57757;53.198;19.646;2022-07-25T11:59:10;100051.94;;;33.93;38.00
70338;BME280;57757;53.198;19.646;2022-07-25T12:01:48;100045.66;;;34.20;37.55
70338;BME280;57757;53.198;19.646;2022-07-25T12:04:17;100043.05;;;34.15;36.99
70338;BME280;57757;53.198;19.646;2022-07-25T12:06:47;100038.04;;;34.30;37.18
70338;BME280;57757;53.198;19.646;2022-07-25T12:09:24;100038.73;;;34.69;36.97
70338;BME280;57757;53.198;19.646;2022-07-25T12:12:01;100027.49;;;34.83;36.36
70338;BME280;57757;53.198;19.646;2022-07-25T12:14:29;100026.73;;;35.11;36.31
70338;BME280;57757;53.198;19.646;2022-07-25T12:17:01;100024.77;;;35.35;35.97
70338;BME280;57757;53.198;19.646;2022-07-25T12:19:29;100020.70;;;35.38;35.34
70338;BME280;57757;53.198;19.646;2022-07-25T12:21:59;100024.55;;;35.27;35.36
70338;BME280;57757;53.198;19.646;2022-07-25T12:24:27;100017.67;;;35.30;35.46
70338;BME280;57757;53.198;19.646;2022-07-25T12:26:54;100013.59;;;35.36;35.08
70338;BME280;57757;53.198;19.646;2022-07-25T12:29:21;100008.52;;;35.36;34.74
70338;BME280;57757;53.198;19.646;2022-07-25T12:31:49;99996.04;;;35.58;35.27
70338;BME280;57757;53.198;19.646;2022-07-25T12:34:16;99995.52;;;36.28;35.48
70338;BME280;57757;53.198;19.646;2022-07-25T12:36:44;99990.53;;;36.87;34.94
70338;BME280;57757;53.198;19.646;2022-07-25T12:39:12;99986.96;;;37.50;34.74
70338;BME280;57757;53.198;19.646;2022-07-25T12:41:39;99983.56;;;38.26;34.50
70338;BME280;57757;53.198;19.646;2022-07-25T12:44:08;99986.09;;;38.98;34.42
70338;BME280;57757;53.198;19.646;2022-07-25T12:46:36;99983.04;;;39.60;33.95
70338;BME280;57757;53.198;19.646;2022-07-25T12:49:04;99982.45;;;40.05;33.61
70338;BME280;57757;53.198;19.646;2022-07-25T12:51:32;99984.04;;;40.56;33.15
70338;BME280;57757;53.198;19.646;2022-07-25T12:54:00;99982.52;;;40.61;32.14
70338;BME280;57757;53.198;19.646;2022-07-25T12:56:27;99976.20;;;40.33;32.12
70338;BME280;57757;53.198;19.646;2022-07-25T12:58:55;99967.44;;;40.34;31.86
70338;BME280;57757;53.198;19.646;2022-07-25T13:01:22;99959.60;;;40.35;31.78
70338;BME280;57757;53.198;19.646;2022-07-25T13:03:50;99951.89;;;40.37;31.82
70338;BME280;57757;53.198;19.646;2022-07-25T13:06:18;99945.20;;;40.64;31.62
70338;BME280;57757;53.198;19.646;2022-07-25T13:08:47;99944.39;;;41.02;31.15
70338;BME280;57757;53.198;19.646;2022-07-25T13:11:15;99942.40;;;41.09;30.51
70338;BME280;57757;53.198;19.646;2022-07-25T13:13:43;99944.59;;;41.04;30.52
70338;BME280;57757;53.198;19.646;2022-07-25T13:16:11;99944.30;;;41.10;30.43
70338;BME280;57757;53.198;19.646;2022-07-25T13:18:39;99941.00;;;41.23;29.75
70338;BME280;57757;53.198;19.646;2022-07-25T13:21:06;99933.14;;;41.48;29.84
70338;BME280;57757;53.198;19.646;2022-07-25T13:23:34;99938.80;;;41.68;28.98
70338;BME280;57757;53.198;19.646;2022-07-25T13:26:03;99928.78;;;41.32;28.73
70338;BME280;57757;53.198;19.646;2022-07-25T13:28:30;99929.55;;;41.44;29.21
70338;BME280;57757;53.198;19.646;2022-07-25T13:30:58;99925.62;;;41.53;28.34
70338;BME280;57757;53.198;19.646;2022-07-25T13:33:27;99922.48;;;41.29;28.44
70338;BME280;57757;53.198;19.646;2022-07-25T13:35:55;99914.48;;;41.38;28.51
70338;BME280;57757;53.198;19.646;2022-07-25T13:38:22;99910.23;;;41.55;28.32
70338;BME280;57757;53.198;19.646;2022-07-25T13:40:50;99911.06;;;41.72;27.76
70338;BME280;57757;53.198;19.646;2022-07-25T13:43:24;99905.80;;;41.48;27.23
70338;BME280;57757;53.198;19.646;2022-07-25T13:45:52;99906.47;;;41.36;27.45
70338;BME280;57757;53.198;19.646;2022-07-25T13:48:20;99897.82;;;41.20;27.09
70338;BME280;57757;53.198;19.646;2022-07-25T13:50:58;99894.95;;;41.21;27.20
70338;BME280;57757;53.198;19.646;2022-07-25T13:53:25;99899.06;;;41.48;27.16
70338;BME280;57757;53.198;19.646;2022-07-25T13:55:57;99894.41;;;41.75;26.78
70338;BME280;57757;53.198;19.646;2022-07-25T13:58:25;99888.92;;;41.66;26.22
70338;BME280;57757;53.198;19.646;2022-07-25T14:00:53;99884.20;;;41.76;26.36
70338;BME280;57757;53.198;19.646;2022-07-25T14:03:21;99882.55;;;41.96;26.19
70338;BME280;57757;53.198;19.646;2022-07-25T14:05:49;99880.84;;;42.31;26.32
70338;BME280;57757;53.198;19.646;2022-07-25T14:08:17;99883.46;;;42.70;25.85
70338;BME280;57757;53.198;19.646;2022-07-25T14:10:45;99882.75;;;43.13;25.75
70338;BME280;57757;53.198;19.646;2022-07-25T14:13:12;99878.20;;;43.52;25.39
70338;BME280;57757;53.198;19.646;2022-07-25T14:15:40;99873.55;;;43.68;24.95
70338;BME280;57757;53.198;19.646;2022-07-25T14:18:07;99870.04;;;43.80;24.99
70338;BME280;57757;53.198;19.646;2022-07-25T14:20:36;99866.33;;;44.31;25.28
70338;BME280;57757;53.198;19.646;2022-07-25T14:23:03;99864.55;;;45.10;25.05
70338;BME280;57757;53.198;19.646;2022-07-25T14:25:31;99866.23;;;45.61;24.26
70338;BME280;57757;53.198;19.646;2022-07-25T14:27:59;99863.58;;;45.78;24.23
70338;BME280;57757;53.198;19.646;2022-07-25T14:30:27;99863.27;;;45.97;24.18
70338;BME280;57757;53.198;19.646;2022-07-25T14:32:54;99862.84;;;46.43;24.00
70338;BME280;57757;53.198;19.646;2022-07-25T14:35:21;99863.45;;;46.98;23.81
70338;BME280;57757;53.198;19.646;2022-07-25T14:37:49;99856.69;;;47.52;23.50
70338;BME280;57757;53.198;19.646;2022-07-25T14:40:16;99853.02;;;47.87;23.00
70338;BME280;57757;53.198;19.646;2022-07-25T14:42:44;99844.86;;;47.92;22.65
70338;BME280;57757;53.198;19.646;2022-07-25T14:45:13;99838.23;;;48.02;22.54
70338;BME280;57757;53.198;19.646;2022-07-25T14:47:41;99843.10;;;47.78;21.90
70338;BME280;57757;53.198;19.646;2022-07-25T14:50:09;99839.91;;;47.26;21.77
70338;BME280;57757;53.198;19.646;2022-07-25T14:52:37;99838.44;;;47.24;21.97
70338;BME280;57757;53.198;19.646;2022-07-25T14:55:05;99837.64;;;47.60;21.77
70338;BME280;57757;53.198;19.646;2022-07-25T14:57:33;99828.13;;;47.69;21.37
70338;BME280;57757;53.198;19.646;2022-07-25T15:00:02;99826.70;;;47.61;21.27
70338;BME280;57757;53.198;19.646;2022-07-25T15:02:30;99819.66;;;47.70;21.14
70338;BME280;57757;53.198;19.646;2022-07-25T15:04:58;99818.99;;;47.57;20.81
70338;BME280;57757;53.198;19.646;2022-07-25T15:07:25;99817.51;;;47.63;20.84
70338;BME280;57757;53.198;19.646;2022-07-25T15:09:53;99813.02;;;47.70;20.51
70338;BME280;57757;53.198;19.646;2022-07-25T15:12:20;99812.55;;;47.81;20.52
70338;BME280;57757;53.198;19.646;2022-07-25T15:14:48;99809.30;;;47.96;20.33
70338;BME280;57757;53.198;19.646;2022-07-25T15:17:16;99806.91;;;48.28;20.19
70338;BME280;57757;53.198;19.646;2022-07-25T15:19:43;99800.70;;;48.36;19.64
70338;BME280;57757;53.198;19.646;2022-07-25T15:22:11;99789.14;;;47.86;19.38
70338;BME280;57757;53.198;19.646;2022-07-25T15:24:38;99789.42;;;47.57;19.42
70338;BME280;57757;53.198;19.646;2022-07-25T15:27:25;99790.30;;;47.56;19.45
70338;BME280;57757;53.198;19.646;2022-07-25T15:29:53;99786.73;;;47.82;19.47
70338;BME280;57757;53.198;19.646;2022-07-25T15:32:21;99782.98;;;48.30;19.41
70338;BME280;57757;53.198;19.646;2022-07-25T15:34:48;99777.64;;;48.97;19.17
70338;BME280;57757;53.198;19.646;2022-07-25T15:37:16;99775.89;;;49.22;18.58
70338;BME280;57757;53.198;19.646;2022-07-25T15:39:43;99775.98;;;48.97;18.57
70338;BME280;57757;53.198;19.646;2022-07-25T15:42:11;99771.98;;;49.18;18.64
70338;BME280;57757;53.198;19.646;2022-07-25T15:44:39;99768.19;;;49.57;18.45
70338;BME280;57757;53.198;19.646;2022-07-25T15:47:06;99767.75;;;49.93;18.31
70338;BME280;57757;53.198;19.646;2022-07-25T15:49:35;99765.95;;;49.92;17.76
70338;BME280;57757;53.198;19.646;2022-07-25T15:52:03;99761.70;;;49.35;17.68
70338;BME280;57757;53.198;19.646;2022-07-25T15:54:31;99758.15;;;49.12;17.72
70338;BME280;57757;53.198;19.646;2022-07-25T15:56:58;99753.28;;;49.00;17.75
70338;BME280;57757;53.198;19.646;2022-07-25T15:59:26;99751.13;;;49.16;17.62
70338;BME280;57757;53.198;19.646;2022-07-25T16:01:54;99746.67;;;49.43;17.51
70338;BME280;57757;53.198;19.646;2022-07-25T16:04:21;99746.70;;;49.65;17.23
70338;BME280;57757;53.198;19.646;2022-07-25T16:06:49;99745.67;;;49.78;17.10
70338;BME280;57757;53.198;19.646;2022-07-25T16:09:16;99747.48;;;49.79;16.75
70338;BME280;57757;53.198;19.646;2022-07-25T16:11:44;99742.84;;;49.58;16.70
70338;BME280;57757;53.198;19.646;2022-07-25T16:14:12;99740.08;;;49.02;16.40
70338;BME280;57757;53.198;19.646;2022-07-25T16:16:39;99737.14;;;48.69;16.52
70338;BME280;57757;53.198;19.646;2022-07-25T16:19:07;99736.38;;;48.57;16.65